createdAt,value
2023-01-31T00:02:12.770Z,100956.97
2023-01-31T00:04:42.217Z,100947.50
2023-01-31T00:07:11.688Z,100941.72
2023-01-31T00:12:51.624Z,100951.28
2023-01-31T00:15:52.371Z,100959.72
2023-01-31T00:21:53.116Z,100964.63
2023-01-31T00:24:44.242Z,100968.09
2023-01-31T00:27:13.444Z,100979.47
2023-01-31T00:29:42.936Z,100968.28
2023-01-31T00:32:12.258Z,100970.34
2023-01-31T00:34:41.784Z,100987.34
2023-01-31T00:37:14.307Z,100995.34
2023-01-31T00:39:43.868Z,100995.56
2023-01-31T00:42:13.113Z,100990.72
2023-01-31T00:44:42.347Z,101001.81
2023-01-31T00:47:11.852Z,101004.59
2023-01-31T00:49:48.661Z,100999.97
2023-01-31T00:55:51.291Z,101003.88
2023-01-31T00:58:52.297Z,100997.81
2023-01-31T01:01:39.202Z,101003.88
2023-01-31T01:04:06.840Z,101010.06
2023-01-31T01:07:14.444Z,101011.00
2023-01-31T01:09:43.808Z,101016.19
2023-01-31T01:12:10.303Z,101006.47
2023-01-31T01:14:36.940Z,101010.91
2023-01-31T01:17:06.362Z,101006.34
2023-01-31T01:19:41.867Z,101006.34
2023-01-31T01:22:17.294Z,101015.06
2023-01-31T01:24:44.018Z,101018.09
2023-01-31T01:27:13.684Z,101020.78
2023-01-31T01:29:43.069Z,101018.72
2023-01-31T01:32:12.769Z,101034.91
2023-01-31T01:34:42.039Z,101030.66
2023-01-31T01:40:04.949Z,101037.84
2023-01-31T01:42:40.563Z,101046.59
2023-01-31T01:45:21.164Z,101039.63
2023-01-31T01:47:50.787Z,101048.34
2023-01-31T01:50:23.996Z,101041.03
2023-01-31T01:52:56.310Z,101042.81
2023-01-31T01:55:29.321Z,101044.41
2023-01-31T01:58:01.718Z,101058.56
2023-01-31T02:00:31.059Z,101064.59
2023-01-31T02:03:00.175Z,101064.00
2023-01-31T02:05:33.329Z,101059.25
2023-01-31T02:08:02.256Z,101056.28
2023-01-31T02:10:32.504Z,101059.91
2023-01-31T02:12:59.805Z,101072.00
2023-01-31T02:15:26.282Z,101067.41
2023-01-31T02:17:53.871Z,101077.78
2023-01-31T02:20:58.073Z,101085.94
2023-01-31T02:23:30.512Z,101101.28
2023-01-31T02:26:18.792Z,101089.56
2023-01-31T02:29:17.600Z,101087.66
2023-01-31T02:32:15.104Z,101087.84
2023-01-31T02:34:53.903Z,101089.88
2023-01-31T02:37:33.679Z,101086.09
2023-01-31T02:40:28.045Z,101072.66
2023-01-31T02:43:06.161Z,101076.00
2023-01-31T02:45:56.781Z,101071.09
2023-01-31T02:48:28.858Z,101075.31
2023-01-31T02:51:17.298Z,101069.56
2023-01-31T02:53:51.017Z,101071.94
2023-01-31T02:56:24.895Z,101080.81
2023-01-31T02:59:03.181Z,101081.78
2023-01-31T03:01:33.612Z,101084.53
2023-01-31T03:04:07.418Z,101088.09
2023-01-31T03:06:36.806Z,101101.31
2023-01-31T03:09:13.652Z,101096.47
2023-01-31T03:11:56.082Z,101091.22
2023-01-31T03:14:31.826Z,101108.78
2023-01-31T03:17:32.152Z,101093.97
2023-01-31T03:20:12.141Z,101087.16
2023-01-31T03:22:51.017Z,101096.47
2023-01-31T03:25:21.982Z,101093.59
2023-01-31T03:27:55.472Z,101099.97
2023-01-31T03:30:43.810Z,101097.44
2023-01-31T03:33:19.570Z,101092.63
2023-01-31T03:35:56.571Z,101088.06
2023-01-31T03:38:31.005Z,101086.72
2023-01-31T03:41:21.266Z,101087.72
2023-01-31T03:44:15.728Z,101088.41
2023-01-31T03:46:51.519Z,101088.47
2023-01-31T03:49:21.716Z,101092.78
2023-01-31T03:51:54.110Z,101089.78
2023-01-31T03:54:28.056Z,101080.09
2023-01-31T03:56:54.463Z,101087.81
2023-01-31T03:59:26.303Z,101088.84
2023-01-31T04:01:57.421Z,101088.53
2023-01-31T04:04:37.145Z,101089.91
2023-01-31T04:07:04.964Z,101091.34
2023-01-31T04:09:31.370Z,101072.88
2023-01-31T04:12:01.075Z,101080.47
2023-01-31T04:14:28.215Z,101069.13
2023-01-31T04:16:54.695Z,101086.03
2023-01-31T04:19:21.093Z,101086.09
2023-01-31T04:21:47.546Z,101069.69
2023-01-31T04:24:13.992Z,101071.31
2023-01-31T04:26:40.489Z,101084.78
2023-01-31T04:29:06.975Z,101074.38
2023-01-31T04:31:33.535Z,101073.06
2023-01-31T04:34:00.154Z,101072.41
2023-01-31T04:36:26.669Z,101070.75
2023-01-31T04:38:53.063Z,101080.09
2023-01-31T04:41:19.497Z,101077.03
2023-01-31T04:43:45.918Z,101086.88
2023-01-31T04:46:12.337Z,101084.53
2023-01-31T04:48:40.307Z,101079.38
2023-01-31T04:51:07.579Z,101080.56
2023-01-31T04:53:34.150Z,101079.25
2023-01-31T04:56:00.675Z,101084.41
2023-01-31T04:58:27.086Z,101087.31
2023-01-31T05:00:54.387Z,101082.16
2023-01-31T05:03:20.837Z,101098.81
2023-01-31T05:05:50.899Z,101095.25
2023-01-31T05:08:17.465Z,101101.44
2023-01-31T05:10:44.153Z,101095.13
2023-01-31T05:13:11.580Z,101098.31
2023-01-31T05:15:38.349Z,101097.22
2023-01-31T05:18:04.896Z,101099.22
2023-01-31T05:20:36.354Z,101096.56
2023-01-31T05:23:02.808Z,101087.13
2023-01-31T05:25:29.367Z,101083.47
2023-01-31T05:27:55.814Z,101087.84
2023-01-31T05:30:24.391Z,101081.63
2023-01-31T05:32:51.332Z,101093.59
2023-01-31T05:35:18.589Z,101093.72
2023-01-31T05:37:46.131Z,101086.69
2023-01-31T05:40:15.159Z,101100.88
2023-01-31T05:42:42.108Z,101092.94
2023-01-31T05:45:10.801Z,101098.81
2023-01-31T05:47:37.436Z,101098.34
2023-01-31T05:50:04.802Z,101099.22
2023-01-31T05:52:31.277Z,101095.56
2023-01-31T05:54:57.935Z,101091.41
2023-01-31T05:57:24.429Z,101105.16
2023-01-31T05:59:50.937Z,101099.66
2023-01-31T06:02:17.416Z,101099.59
2023-01-31T06:04:43.908Z,101101.97
2023-01-31T06:07:10.359Z,101102.13
2023-01-31T06:09:38.720Z,101100.94
2023-01-31T06:12:05.592Z,101108.59
2023-01-31T06:14:33.073Z,101105.03
2023-01-31T06:16:59.585Z,101098.25
2023-01-31T06:19:26.049Z,101104.03
2023-01-31T06:21:52.626Z,101105.66
2023-01-31T06:24:19.093Z,101092.03
2023-01-31T06:26:45.578Z,101092.97
2023-01-31T06:29:12.099Z,101084.13
2023-01-31T06:31:38.673Z,101089.91
2023-01-31T06:34:05.134Z,101091.50
2023-01-31T06:36:33.975Z,101092.06
2023-01-31T06:39:00.525Z,101074.94
2023-01-31T06:41:26.954Z,101061.94
2023-01-31T06:43:53.429Z,101069.88
2023-01-31T06:46:19.891Z,101070.66
2023-01-31T06:48:47.172Z,101065.06
2023-01-31T06:51:13.660Z,101056.34
2023-01-31T06:53:40.175Z,101059.06
2023-01-31T06:56:07.428Z,101041.94
2023-01-31T06:58:34.156Z,101045.28
2023-01-31T07:01:12.392Z,101038.94
2023-01-31T07:03:39.497Z,101042.31
2023-01-31T07:06:07.167Z,101037.66
2023-01-31T07:08:35.816Z,101031.97
2023-01-31T07:11:03.219Z,101027.13
2023-01-31T07:13:30.580Z,101017.13
2023-01-31T07:15:57.752Z,101015.22
2023-01-31T07:18:24.264Z,101006.88
2023-01-31T07:20:51.317Z,101008.75
2023-01-31T07:23:17.807Z,101005.16
2023-01-31T07:25:44.226Z,101007.34
2023-01-31T07:28:12.145Z,100992.28
2023-01-31T07:30:39.930Z,100997.75
2023-01-31T07:33:06.500Z,100989.59
2023-01-31T07:35:33.379Z,100990.00
2023-01-31T07:37:59.806Z,100978.00
2023-01-31T07:40:26.259Z,100977.13
2023-01-31T07:42:58.051Z,100976.75
2023-01-31T07:45:24.496Z,100975.91
2023-01-31T07:47:51.711Z,100977.13
2023-01-31T07:50:18.879Z,100961.69
2023-01-31T07:52:45.272Z,100963.06
2023-01-31T07:55:11.682Z,100962.03
2023-01-31T07:57:38.177Z,100964.19
2023-01-31T08:00:25.053Z,100956.84
2023-01-31T08:03:10.063Z,100952.63
2023-01-31T08:05:36.883Z,100938.69
2023-01-31T08:08:10.363Z,100941.75
2023-01-31T08:10:37.391Z,100941.19
2023-01-31T08:13:04.280Z,100939.94
2023-01-31T08:15:30.692Z,100940.03
2023-01-31T08:17:57.122Z,100945.34
2023-01-31T08:20:23.664Z,100939.53
2023-01-31T08:22:50.111Z,100939.28
2023-01-31T08:25:18.370Z,100933.63
2023-01-31T08:27:46.617Z,100940.19
2023-01-31T08:30:13.667Z,100928.91
2023-01-31T08:32:40.178Z,100932.06
2023-01-31T08:35:07.586Z,100928.38
2023-01-31T08:37:34.620Z,100927.47
2023-01-31T08:40:01.092Z,100916.41
2023-01-31T08:42:27.544Z,100924.50
2023-01-31T08:44:54.052Z,100916.75
2023-01-31T08:47:20.541Z,100907.16
2023-01-31T08:49:46.962Z,100912.81
2023-01-31T08:52:13.374Z,100898.06
2023-01-31T08:54:39.841Z,100908.56
2023-01-31T08:57:06.290Z,100892.78
2023-01-31T08:59:33.199Z,100895.41
2023-01-31T09:01:59.708Z,100886.97
2023-01-31T09:04:26.133Z,100889.88
2023-01-31T09:06:52.589Z,100874.59
2023-01-31T09:09:19.065Z,100875.53
2023-01-31T09:11:45.459Z,100872.69
2023-01-31T09:14:11.982Z,100871.09
2023-01-31T09:16:39.004Z,100875.19
2023-01-31T09:19:05.731Z,100857.63
2023-01-31T09:21:32.493Z,100851.56
2023-01-31T09:24:02.336Z,100869.09
2023-01-31T09:26:29.754Z,100868.72
2023-01-31T09:28:58.072Z,100856.38
2023-01-31T09:31:24.967Z,100860.91
2023-01-31T09:33:51.428Z,100845.84
2023-01-31T09:36:20.471Z,100836.72
2023-01-31T09:38:47.303Z,100829.78
2023-01-31T09:41:34.826Z,100827.63
2023-01-31T09:44:11.297Z,100833.88
2023-01-31T09:46:42.648Z,100838.81
2023-01-31T09:49:18.588Z,100838.41
2023-01-31T09:51:48.404Z,100836.81
2023-01-31T09:54:22.970Z,100840.09
2023-01-31T09:57:00.978Z,100823.19
2023-01-31T09:59:53.427Z,100820.56
2023-01-31T10:02:29.681Z,100809.28
2023-01-31T10:05:18.248Z,100799.94
2023-01-31T10:07:53.651Z,100818.34
2023-01-31T10:10:34.228Z,100806.91
2023-01-31T10:13:06.805Z,100809.31
2023-01-31T10:15:44.277Z,100801.56
2023-01-31T10:18:34.033Z,100792.28
2023-01-31T10:21:08.000Z,100789.34
2023-01-31T10:24:00.512Z,100785.63
2023-01-31T10:26:34.516Z,100804.41
2023-01-31T10:29:11.658Z,100799.81
2023-01-31T10:32:04.841Z,100804.56
2023-01-31T10:34:43.496Z,100790.72
2023-01-31T10:37:32.701Z,100801.84
2023-01-31T10:40:04.813Z,100799.06
2023-01-31T10:42:36.709Z,100787.66
2023-01-31T10:45:06.081Z,100761.53
2023-01-31T10:47:38.080Z,100773.66
2023-01-31T10:50:20.167Z,100762.72
2023-01-31T10:53:05.142Z,100755.38
2023-01-31T10:56:00.288Z,100756.75
2023-01-31T10:58:26.931Z,100749.63
2023-01-31T11:00:53.655Z,100748.59
2023-01-31T11:03:20.153Z,100734.31
2023-01-31T11:05:50.667Z,100737.72
2023-01-31T11:08:45.582Z,100713.50
2023-01-31T11:11:16.985Z,100700.97
2023-01-31T11:14:02.932Z,100700.50
2023-01-31T11:16:39.976Z,100685.38
2023-01-31T11:19:24.045Z,100678.56
2023-01-31T11:21:52.655Z,100676.34
2023-01-31T11:24:29.979Z,100664.59
2023-01-31T11:27:02.707Z,100661.00
2023-01-31T11:29:43.349Z,100645.50
2023-01-31T11:32:21.863Z,100638.69
2023-01-31T11:35:23.688Z,100647.41
2023-01-31T11:37:54.030Z,100635.16
2023-01-31T11:40:34.723Z,100643.06
2023-01-31T11:43:14.782Z,100640.81
2023-01-31T11:45:46.340Z,100631.63
2023-01-31T11:48:13.155Z,100633.63
2023-01-31T11:51:01.484Z,100625.19
2023-01-31T11:53:36.176Z,100617.78
2023-01-31T11:56:18.670Z,100607.50
2023-01-31T11:58:48.484Z,100615.75
2023-01-31T12:01:18.390Z,100607.44
2023-01-31T12:04:05.347Z,100618.31
2023-01-31T12:06:37.552Z,100605.13
2023-01-31T12:09:25.370Z,100601.69
2023-01-31T12:11:56.690Z,100605.22
2023-01-31T12:14:25.126Z,100586.28
2023-01-31T12:16:55.673Z,100583.38
2023-01-31T12:19:40.953Z,100582.16
2023-01-31T12:22:14.138Z,100576.66
2023-01-31T12:24:58.492Z,100583.16
2023-01-31T12:27:37.110Z,100576.78
2023-01-31T12:30:25.104Z,100579.91
2023-01-31T12:33:26.762Z,100569.75
2023-01-31T12:36:02.040Z,100567.31
2023-01-31T12:38:31.399Z,100568.03
2023-01-31T12:41:05.071Z,100554.94
2023-01-31T12:43:43.446Z,100539.38
2023-01-31T12:46:32.091Z,100560.72
2023-01-31T12:49:16.535Z,100564.59
2023-01-31T12:52:17.380Z,100554.53
2023-01-31T12:55:21.678Z,100570.75
2023-01-31T12:57:54.298Z,100566.22
2023-01-31T13:00:38.863Z,100559.25
2023-01-31T13:03:40.719Z,100552.53
2023-01-31T13:06:15.648Z,100550.16
2023-01-31T13:09:07.406Z,100538.13
2023-01-31T13:11:56.058Z,100560.72
2023-01-31T13:14:26.145Z,100559.94
2023-01-31T13:16:58.264Z,100561.94
2023-01-31T13:19:43.688Z,100571.44
2023-01-31T13:22:20.528Z,100559.38
2023-01-31T13:24:53.584Z,100570.31
2023-01-31T13:27:40.925Z,100560.06
2023-01-31T13:30:16.200Z,100566.97
2023-01-31T13:32:47.177Z,100561.16
2023-01-31T13:35:38.134Z,100574.16
2023-01-31T13:38:12.010Z,100562.13
2023-01-31T13:40:52.320Z,100559.94
2023-01-31T13:43:20.376Z,100564.72
2023-01-31T13:45:52.766Z,100569.25
2023-01-31T13:49:16.568Z,100578.19
2023-01-31T13:53:14.925Z,100567.78
2023-01-31T13:55:45.823Z,100582.19
2023-01-31T13:58:35.314Z,100561.22
2023-01-31T14:01:24.314Z,100559.50
2023-01-31T14:04:15.900Z,100554.31
2023-01-31T14:07:17.762Z,100553.22
2023-01-31T14:14:45.670Z,100543.97
2023-01-31T14:18:14.705Z,100536.94
2023-01-31T14:27:33.737Z,100540.25
2023-01-31T14:36:41.208Z,100524.94
2023-01-31T14:39:10.617Z,100521.06
2023-01-31T14:42:16.177Z,100536.69
2023-01-31T14:44:48.713Z,100522.75
2023-01-31T14:47:27.342Z,100528.53
2023-01-31T14:50:32.268Z,100531.94
2023-01-31T14:53:37.225Z,100532.63
2023-01-31T14:56:18.916Z,100528.69
2023-01-31T14:58:47.306Z,100525.91
2023-01-31T15:01:18.380Z,100523.31
2023-01-31T15:03:56.007Z,100521.13
2023-01-31T15:06:37.552Z,100517.84
2023-01-31T15:09:16.250Z,100502.88
2023-01-31T15:11:47.889Z,100514.84
2023-01-31T15:14:36.003Z,100510.16
2023-01-31T15:17:32.089Z,100506.63
2023-01-31T15:20:18.124Z,100518.53
2023-01-31T15:22:45.582Z,100504.75
2023-01-31T15:25:33.150Z,100511.94
2023-01-31T15:28:01.029Z,100506.25
2023-01-31T15:30:32.993Z,100513.50
2023-01-31T15:33:08.655Z,100507.34
2023-01-31T15:35:40.919Z,100521.16
2023-01-31T15:38:33.293Z,100509.97
2023-01-31T15:41:07.116Z,100507.84
2023-01-31T15:43:33.590Z,100514.66
2023-01-31T15:46:21.969Z,100527.09
2023-01-31T15:48:48.844Z,100530.56
2023-01-31T15:51:16.317Z,100519.88
2023-01-31T15:53:43.167Z,100509.53
2023-01-31T15:56:21.687Z,100492.41
2023-01-31T15:58:51.200Z,100508.34
2023-01-31T16:01:17.880Z,100514.88
2023-01-31T16:03:53.722Z,100495.91
2023-01-31T16:06:32.684Z,100508.53
2023-01-31T16:09:01.500Z,100495.50
2023-01-31T16:11:33.426Z,100504.03
2023-01-31T16:14:03.193Z,100501.63
2023-01-31T16:16:30.330Z,100506.13
2023-01-31T16:19:00.708Z,100513.69
2023-01-31T16:21:27.084Z,100511.31
2023-01-31T16:24:09.331Z,100497.50
2023-01-31T16:26:38.982Z,100515.25
2023-01-31T16:29:13.978Z,100500.88
2023-01-31T16:31:49.485Z,100491.22
2023-01-31T16:34:27.880Z,100505.47
2023-01-31T16:37:09.433Z,100498.13
2023-01-31T16:39:35.822Z,100509.84
2023-01-31T16:42:23.567Z,100494.78
2023-01-31T16:44:51.006Z,100499.00
2023-01-31T16:47:44.472Z,100500.69
2023-01-31T16:50:17.008Z,100513.63
2023-01-31T16:52:44.975Z,100513.31
2023-01-31T16:55:24.265Z,100524.53
2023-01-31T16:57:50.695Z,100533.16
2023-01-31T17:00:27.298Z,100541.47
2023-01-31T17:02:56.607Z,100548.06
2023-01-31T17:05:29.353Z,100551.91
2023-01-31T17:07:58.241Z,100549.03
2023-01-31T17:10:28.979Z,100533.47
2023-01-31T17:13:00.942Z,100529.41
2023-01-31T17:15:27.856Z,100532.38
2023-01-31T17:17:54.291Z,100530.81
2023-01-31T17:20:21.336Z,100534.97
2023-01-31T17:22:56.957Z,100532.06
2023-01-31T17:25:33.155Z,100527.00
2023-01-31T17:27:59.642Z,100532.03
2023-01-31T17:30:30.028Z,100533.00
2023-01-31T17:32:57.327Z,100540.06
2023-01-31T17:35:28.410Z,100522.84
2023-01-31T17:37:55.326Z,100518.38
2023-01-31T17:40:22.109Z,100507.19
2023-01-31T17:42:52.358Z,100519.81
2023-01-31T17:45:20.001Z,100512.91
2023-01-31T17:47:46.732Z,100502.38
2023-01-31T17:50:17.066Z,100512.25
2023-01-31T17:52:43.634Z,100518.38
2023-01-31T17:55:11.271Z,100516.81
2023-01-31T17:57:38.120Z,100520.97
2023-01-31T18:00:07.251Z,100520.63
2023-01-31T18:02:34.670Z,100527.56
2023-01-31T18:05:01.261Z,100533.19
2023-01-31T18:07:27.703Z,100533.00
2023-01-31T18:09:54.550Z,100532.41
2023-01-31T18:12:20.969Z,100520.09
2023-01-31T18:14:47.428Z,100529.97
2023-01-31T18:17:14.017Z,100527.56
2023-01-31T18:19:40.438Z,100526.41
2023-01-31T18:22:06.915Z,100517.84
2023-01-31T18:24:33.796Z,100519.44
2023-01-31T18:27:00.442Z,100532.50
2023-01-31T18:29:26.963Z,100532.00
2023-01-31T18:32:02.235Z,100527.59
2023-01-31T18:34:30.705Z,100522.88
2023-01-31T18:36:57.191Z,100518.81
2023-01-31T18:39:24.715Z,100533.34
2023-01-31T18:41:51.224Z,100536.00
2023-01-31T18:44:17.709Z,100546.63
2023-01-31T18:46:44.164Z,100542.72
2023-01-31T18:49:10.671Z,100562.22
2023-01-31T18:51:37.196Z,100559.47
2023-01-31T18:54:04.173Z,100547.47
2023-01-31T18:56:30.608Z,100557.56
2023-01-31T18:58:58.569Z,100544.84
2023-01-31T19:01:28.559Z,100541.16
2023-01-31T19:03:57.452Z,100535.84
2023-01-31T19:06:35.152Z,100543.78
2023-01-31T19:09:02.163Z,100549.03
2023-01-31T19:11:29.436Z,100560.97
2023-01-31T19:13:56.922Z,100552.63
2023-01-31T19:16:25.872Z,100553.41
2023-01-31T19:18:52.987Z,100554.59
2023-01-31T19:21:22.213Z,100556.19
2023-01-31T19:23:49.899Z,100551.75
2023-01-31T19:26:17.842Z,100566.25
2023-01-31T19:28:45.619Z,100558.22
2023-01-31T19:31:14.860Z,100563.97
2023-01-31T19:33:41.855Z,100540.69
2023-01-31T19:36:16.198Z,100556.41
2023-01-31T19:38:42.897Z,100560.03
2023-01-31T19:41:12.573Z,100557.97
2023-01-31T19:43:39.082Z,100554.50
2023-01-31T19:46:06.775Z,100559.09
2023-01-31T19:48:33.431Z,100580.09
2023-01-31T19:51:06.909Z,100574.78
2023-01-31T19:53:33.383Z,100569.19
2023-01-31T19:55:59.797Z,100564.44
2023-01-31T19:58:31.012Z,100573.13
2023-01-31T20:01:15.937Z,100584.00
2023-01-31T20:03:43.615Z,100581.97
2023-01-31T20:06:15.917Z,100587.53
2023-01-31T20:08:42.894Z,100586.09
2023-01-31T20:11:10.023Z,100602.16
2023-01-31T20:13:36.785Z,100592.06
2023-01-31T20:16:06.650Z,100604.06
2023-01-31T20:18:34.136Z,100601.81
2023-01-31T20:21:00.769Z,100609.75
2023-01-31T20:23:28.596Z,100619.94
2023-01-31T20:25:55.242Z,100607.50
2023-01-31T20:28:22.144Z,100604.28
2023-01-31T20:30:49.309Z,100608.53
2023-01-31T20:33:16.737Z,100610.44
2023-01-31T20:35:44.067Z,100607.53
2023-01-31T20:38:11.428Z,100614.16
2023-01-31T20:40:38.740Z,100621.38
2023-01-31T20:43:05.702Z,100625.03
2023-01-31T20:45:32.916Z,100629.19
2023-01-31T20:48:00.225Z,100632.09
2023-01-31T20:50:27.379Z,100626.41
2023-01-31T20:52:54.627Z,100626.47
2023-01-31T20:55:21.902Z,100622.66
2023-01-31T20:57:50.172Z,100620.41
2023-01-31T21:00:21.118Z,100619.41
2023-01-31T21:02:49.129Z,100629.81
2023-01-31T21:05:17.477Z,100616.44
2023-01-31T21:07:44.477Z,100611.50
2023-01-31T21:10:12.160Z,100606.72
2023-01-31T21:12:38.936Z,100619.63
2023-01-31T21:15:06.031Z,100599.38
2023-01-31T21:17:40.079Z,100601.09
2023-01-31T21:20:07.958Z,100608.69
2023-01-31T21:22:34.788Z,100602.59
2023-01-31T21:25:01.376Z,100601.59
2023-01-31T21:27:27.902Z,100612.91
2023-01-31T21:29:54.501Z,100610.59
2023-01-31T21:32:20.956Z,100623.91
2023-01-31T21:34:47.477Z,100620.25
2023-01-31T21:37:13.874Z,100620.16
2023-01-31T21:39:40.268Z,100613.28
2023-01-31T21:42:15.612Z,100615.53
2023-01-31T21:44:48.355Z,100624.13
2023-01-31T21:47:15.541Z,100617.53
2023-01-31T21:49:42.749Z,100625.13
2023-01-31T21:52:09.953Z,100633.38
2023-01-31T21:54:37.138Z,100614.31
2023-01-31T21:57:03.812Z,100619.91
2023-01-31T21:59:32.262Z,100618.56
2023-01-31T22:01:59.237Z,100622.72
2023-01-31T22:04:25.775Z,100622.00
2023-01-31T22:06:53.412Z,100606.38
2023-01-31T22:09:19.854Z,100608.78
2023-01-31T22:11:47.856Z,100619.06
2023-01-31T22:14:16.022Z,100613.75
2023-01-31T22:16:43.183Z,100623.91
2023-01-31T22:19:11.683Z,100622.34
2023-01-31T22:21:40.606Z,100616.59
2023-01-31T22:24:08.980Z,100629.53
2023-01-31T22:26:41.379Z,100621.41
2023-01-31T22:29:10.468Z,100628.59
2023-01-31T22:31:37.719Z,100628.94
2023-01-31T22:34:05.627Z,100608.38
2023-01-31T22:36:33.116Z,100626.47
2023-01-31T22:38:59.731Z,100614.41
2023-01-31T22:41:26.259Z,100620.63
2023-01-31T22:43:53.390Z,100618.41
2023-01-31T22:46:23.305Z,100613.06
2023-01-31T22:48:50.531Z,100607.88
2023-01-31T22:51:23.063Z,100610.41
2023-01-31T22:53:50.175Z,100608.72
2023-01-31T22:56:19.439Z,100606.75
2023-01-31T22:58:46.982Z,100605.56
2023-01-31T23:01:21.030Z,100609.97
2023-01-31T23:03:48.432Z,100600.69
2023-01-31T23:06:16.779Z,100602.94
2023-01-31T23:08:43.697Z,100593.59
2023-01-31T23:11:13.527Z,100606.09
2023-01-31T23:13:40.019Z,100601.44
2023-01-31T23:16:07.393Z,100603.97
2023-01-31T23:18:35.028Z,100604.47
2023-01-31T23:21:06.697Z,100602.78
2023-01-31T23:23:33.657Z,100598.91
2023-01-31T23:26:00.309Z,100606.91
2023-01-31T23:28:26.812Z,100602.84
2023-01-31T23:30:53.421Z,100601.25
2023-01-31T23:33:19.972Z,100600.69
2023-01-31T23:35:48.327Z,100615.38
2023-01-31T23:38:14.812Z,100605.94
2023-01-31T23:40:41.566Z,100613.16
2023-01-31T23:43:08.304Z,100617.63
2023-01-31T23:45:34.717Z,100606.63
2023-01-31T23:48:01.143Z,100600.72
2023-01-31T23:50:27.553Z,100585.97
2023-01-31T23:52:54.031Z,100599.97
2023-01-31T23:55:22.678Z,100586.41
2023-01-31T23:57:50.094Z,100590.31
